Time;durP1;ratioP1;P1;durP2;ratioP2;P2;SDS_P1;SDS_P2;PMS_P1;PMS_P2;Temp;Humidity;BMP_temperature;BMP_pressure;BME280_temperature;BME280_humidity;BME280_pressure;Samples;Min_cycle;Max_cycle;Signal;HPM_P1;HPM_P2
2022/08/30 00:02:52;;;;;;;7.28;1.50;;;13.80;99.90;;;;;;4965662;28;20422;-60
2022/08/30 00:05:17;;;;;;;3.38;1.13;;;13.70;99.90;;;;;;4968781;28;20034;-60
2022/08/30 00:07:43;;;;;;;4.90;1.30;;;13.70;99.90;;;;;;4966816;28;20444;-59
2022/08/30 00:10:09;;;;;;;3.85;1.27;;;13.60;99.90;;;;;;4968636;28;20031;-59
2022/08/30 00:12:35;;;;;;;6.15;1.52;;;13.60;99.90;;;;;;4966827;28;20397;-59
2022/08/30 00:15:02;;;;;;;3.28;1.55;;;13.50;99.90;;;;;;4964473;28;20023;-59
2022/08/30 00:17:28;;;;;;;2.97;1.30;;;13.60;99.90;;;;;;4966926;28;20081;-59
2022/08/30 00:19:54;;;;;;;2.83;1.20;;;13.50;99.90;;;;;;4967550;28;20081;-58
2022/08/30 00:22:20;;;;;;;4.25;1.33;;;13.50;99.90;;;;;;4968035;28;20118;-60
2022/08/30 00:24:46;;;;;;;6.88;1.30;;;13.50;99.90;;;;;;4967794;28;20142;-60
2022/08/30 00:27:12;;;;;;;6.18;1.38;;;13.50;99.90;;;;;;4968804;28;20039;-60
2022/08/30 00:29:38;;;;;;;4.25;1.10;;;13.50;99.90;;;;;;4965893;28;20035;-59
2022/08/30 00:32:04;;;;;;;8.88;2.05;;;13.50;99.90;;;;;;4968252;28;20030;-59
2022/08/30 00:34:31;;;;;;;3.95;1.08;;;13.50;99.90;;;;;;4968898;28;20038;-59
2022/08/30 00:36:58;;;;;;;2.47;1.00;;;13.50;99.90;;;;;;4976126;28;20039;-59
2022/08/30 00:39:23;;;;;;;4.15;1.02;;;13.40;99.90;;;;;;4971288;28;20419;-59
2022/08/30 00:41:49;;;;;;;4.30;1.17;;;13.50;99.90;;;;;;4968849;28;20173;-59
2022/08/30 00:44:15;;;;;;;3.75;1.27;;;13.50;99.90;;;;;;4970556;28;20526;-59
2022/08/30 00:46:41;;;;;;;5.28;1.38;;;13.60;99.90;;;;;;4969684;28;20371;-59
2022/08/30 00:49:09;;;;;;;2.05;1.08;;;13.60;99.90;;;;;;4971383;28;20490;-59
2022/08/30 00:51:35;;;;;;;3.15;1.40;;;13.50;99.90;;;;;;4969187;28;20035;-59
2022/08/30 00:54:02;;;;;;;7.32;1.10;;;13.40;99.90;;;;;;4970628;28;20027;-59
2022/08/30 00:56:28;;;;;;;3.83;1.05;;;13.40;99.90;;;;;;4971458;28;21453;-61
2022/08/30 00:58:58;;;;;;;1.17;0.80;;;13.40;99.90;;;;;;4968949;28;20025;-60
2022/08/30 01:01:24;;;;;;;6.18;1.13;;;13.40;99.90;;;;;;4970608;28;20041;-59
2022/08/30 01:03:51;;;;;;;1.75;0.90;;;13.40;99.90;;;;;;4969200;28;20717;-59
2022/08/30 01:06:17;;;;;;;1.42;1.17;;;13.30;99.90;;;;;;4969350;28;20030;-59
2022/08/30 01:08:45;;;;;;;3.40;1.60;;;13.30;99.90;;;;;;4977706;28;20117;-61
2022/08/30 01:11:13;;;;;;;3.28;1.30;;;13.30;99.90;;;;;;4972142;28;20045;-60
2022/08/30 01:13:39;;;;;;;2.70;0.93;;;13.30;99.90;;;;;;4968948;28;20085;-58
2022/08/30 01:16:06;;;;;;;3.45;1.15;;;13.40;99.90;;;;;;4970365;28;20034;-60
2022/08/30 01:18:31;;;;;;;4.47;1.30;;;13.40;99.90;;;;;;4970736;28;20069;-61
2022/08/30 01:21:06;;;;;;;4.28;2.03;;;13.40;99.90;;;;;;4969969;28;20054;-59
2022/08/30 01:23:37;;;;;;;4.32;1.30;;;13.40;99.90;;;;;;4960982;28;20027;-59
2022/08/30 01:26:04;;;;;;;4.32;1.08;;;13.40;99.90;;;;;;4970282;28;20039;-59
2022/08/30 01:28:31;;;;;;;4.60;1.70;;;13.40;99.90;;;;;;4969250;28;20027;-59
2022/08/30 01:30:57;;;;;;;4.82;1.17;;;13.40;99.90;;;;;;4969184;28;20038;-60
2022/08/30 01:33:24;;;;;;;4.15;1.60;;;13.40;99.90;;;;;;4966679;28;20038;-59
2022/08/30 01:36:00;;;;;;;6.00;1.25;;;13.40;99.90;;;;;;4967524;28;20026;-59
2022/08/30 01:38:54;;;;;;;6.63;1.25;;;13.50;99.90;;;;;;4969412;28;20023;-59
2022/08/30 01:41:29;;;;;;;2.45;1.02;;;13.40;99.90;;;;;;4970029;28;20038;-60
2022/08/30 01:43:57;;;;;;;5.78;1.17;;;13.40;99.90;;;;;;4965943;28;20046;-59
2022/08/30 01:46:28;;;;;;;5.07;1.20;;;13.40;99.90;;;;;;4965309;28;20031;-59
2022/08/30 01:48:55;;;;;;;3.97;1.33;;;13.40;99.90;;;;;;4971823;28;20027;-63
2022/08/30 01:51:23;;;;;;;5.57;1.00;;;13.40;99.90;;;;;;4980143;28;20045;-58
2022/08/30 01:53:49;;;;;;;5.40;1.38;;;13.40;99.90;;;;;;4957451;28;20031;-60
2022/08/30 01:56:15;;;;;;;5.97;1.52;;;13.40;99.90;;;;;;4974961;28;20084;-60
2022/08/30 01:58:41;;;;;;;5.65;1.00;;;13.30;99.90;;;;;;4962861;28;20026;-60
2022/08/30 02:01:11;;;;;;;4.60;1.58;;;13.40;99.90;;;;;;4969229;28;20213;-60
2022/08/30 02:03:38;;;;;;;5.93;1.60;;;13.40;99.90;;;;;;4957751;28;20035;-59
2022/08/30 02:06:06;;;;;;;3.90;1.25;;;13.40;99.90;;;;;;4970031;28;20035;-60
2022/08/30 02:08:33;;;;;;;5.20;2.17;;;13.40;99.90;;;;;;4971765;28;20030;-60
2022/08/30 02:10:59;;;;;;;6.45;1.60;;;13.40;99.90;;;;;;4970214;28;20034;-58
2022/08/30 02:13:26;;;;;;;3.75;1.17;;;13.40;99.90;;;;;;4966977;28;20034;-60
2022/08/30 02:15:53;;;;;;;2.88;1.13;;;13.30;99.90;;;;;;4968186;28;20041;-59
2022/08/30 02:18:19;;;;;;;4.32;1.15;;;13.30;99.90;;;;;;4969854;28;20482;-60
2022/08/30 02:20:45;;;;;;;5.35;1.38;;;13.20;99.90;;;;;;4968129;28;20050;-59
2022/08/30 02:23:11;;;;;;;3.35;1.33;;;13.30;99.90;;;;;;4969983;28;20038;-60
2022/08/30 02:25:37;;;;;;;1.50;1.00;;;13.20;99.90;;;;;;4968027;28;20038;-59
2022/08/30 02:28:04;;;;;;;3.72;1.00;;;13.10;99.90;;;;;;4959945;28;20066;-59
2022/08/30 02:30:30;;;;;;;4.88;1.20;;;13.10;99.90;;;;;;4969799;28;20046;-60
2022/08/30 02:32:56;;;;;;;6.38;1.52;;;13.10;99.90;;;;;;4972927;28;20466;-59
2022/08/30 02:35:22;;;;;;;4.85;1.17;;;13.00;99.90;;;;;;4971831;28;20043;-59
2022/08/30 02:37:48;;;;;;;4.38;1.10;;;12.90;99.90;;;;;;4972330;28;20085;-59
2022/08/30 02:40:14;;;;;;;5.53;1.10;;;12.90;99.90;;;;;;4973784;28;20037;-59
2022/08/30 02:42:40;;;;;;;4.00;1.33;;;12.90;99.90;;;;;;4971316;28;20120;-61
2022/08/30 02:45:07;;;;;;;9.85;1.63;;;12.90;99.90;;;;;;4972652;28;20144;-59
2022/08/30 02:47:33;;;;;;;4.40;1.05;;;12.90;99.90;;;;;;4972820;28;20474;-59
2022/08/30 02:50:00;;;;;;;4.15;1.20;;;12.90;99.90;;;;;;4973130;28;20386;-59
2022/08/30 02:52:26;;;;;;;5.28;1.17;;;13.00;99.90;;;;;;4973359;28;20030;-59
2022/08/30 02:54:52;;;;;;;5.68;1.27;;;12.90;99.90;;;;;;4971792;28;20034;-59
2022/08/30 02:57:18;;;;;;;4.63;1.10;;;13.00;99.90;;;;;;4972045;28;20088;-61
2022/08/30 02:59:44;;;;;;;3.95;1.10;;;13.00;99.90;;;;;;4971437;28;20038;-59
2022/08/30 03:02:11;;;;;;;7.78;1.38;;;13.00;99.90;;;;;;4964302;28;20089;-59
2022/08/30 03:04:42;;;;;;;3.28;1.15;;;13.00;99.90;;;;;;4969360;28;20034;-58
2022/08/30 03:07:08;;;;;;;3.30;1.23;;;12.90;99.90;;;;;;4973104;28;20033;-59
2022/08/30 03:09:35;;;;;;;2.20;1.10;;;12.90;99.90;;;;;;4971108;28;20035;-59
2022/08/30 03:12:01;;;;;;;4.65;1.50;;;12.90;99.90;;;;;;4972988;28;20027;-59
2022/08/30 03:14:27;;;;;;;4.93;1.25;;;12.90;99.90;;;;;;4972746;28;20545;-59
2022/08/30 03:16:53;;;;;;;2.50;1.70;;;12.90;99.90;;;;;;4973194;28;20417;-59
2022/08/30 03:19:19;;;;;;;5.05;1.30;;;12.90;99.90;;;;;;4972908;28;20031;-59
2022/08/30 03:21:45;;;;;;;4.30;1.27;;;12.80;99.90;;;;;;4970734;28;20031;-59
2022/08/30 03:24:12;;;;;;;4.32;1.60;;;12.80;99.90;;;;;;4972670;28;20407;-59
2022/08/30 03:26:38;;;;;;;5.93;1.00;;;12.80;99.90;;;;;;4975908;28;20030;-58
2022/08/30 03:29:04;;;;;;;4.70;1.45;;;12.80;99.90;;;;;;4972613;28;20033;-58
2022/08/30 03:31:29;;;;;;;6.82;1.25;;;12.80;99.90;;;;;;4972671;28;20123;-59
2022/08/30 03:33:55;;;;;;;7.10;1.55;;;12.70;99.90;;;;;;4970981;28;20137;-59
2022/08/30 03:36:21;;;;;;;6.03;1.67;;;12.70;99.90;;;;;;4977997;28;20031;-59
2022/08/30 03:38:46;;;;;;;6.60;1.27;;;12.70;99.90;;;;;;4970776;28;20038;-59
2022/08/30 03:41:12;;;;;;;4.97;1.40;;;12.70;99.90;;;;;;4972676;28;20031;-59
2022/08/30 03:43:38;;;;;;;4.72;1.08;;;12.70;99.90;;;;;;4966052;28;20051;-58
2022/08/30 03:46:04;;;;;;;12.23;1.75;;;12.80;99.90;;;;;;4972860;28;20491;-59
2022/08/30 03:48:30;;;;;;;2.78;1.10;;;12.90;99.90;;;;;;4972000;28;20437;-59
2022/08/30 03:50:56;;;;;;;3.53;1.20;;;13.00;99.90;;;;;;4970486;28;20126;-59
2022/08/30 03:53:22;;;;;;;7.72;1.30;;;13.00;99.90;;;;;;4972399;28;20078;-59
2022/08/30 03:55:48;;;;;;;3.72;1.10;;;13.00;99.90;;;;;;4970515;28;20041;-59
2022/08/30 03:58:14;;;;;;;5.03;1.55;;;13.00;99.90;;;;;;4970798;28;20034;-60
2022/08/30 04:00:40;;;;;;;4.95;1.10;;;13.00;99.90;;;;;;4970176;28;20031;-59
2022/08/30 04:03:05;;;;;;;6.80;1.80;;;12.90;99.90;;;;;;4968224;28;20035;-59
2022/08/30 04:05:31;;;;;;;5.30;1.67;;;12.90;99.90;;;;;;4971981;28;20089;-60
2022/08/30 04:07:57;;;;;;;4.32;1.30;;;12.70;99.90;;;;;;4973670;28;20505;-59
2022/08/30 04:10:23;;;;;;;3.50;1.30;;;12.90;99.90;;;;;;4974976;28;20532;-60
2022/08/30 04:12:49;;;;;;;3.50;1.00;;;12.90;99.90;;;;;;4969572;28;20030;-59
2022/08/30 04:15:16;;;;;;;4.22;1.23;;;12.90;99.90;;;;;;4971669;28;20015;-59
2022/08/30 04:17:42;;;;;;;8.10;1.48;;;12.90;99.90;;;;;;4970009;28;20041;-59
2022/08/30 04:20:09;;;;;;;7.15;1.30;;;12.90;99.90;;;;;;4960455;28;20109;-59
2022/08/30 04:22:35;;;;;;;8.68;1.38;;;12.90;99.90;;;;;;4976661;28;20100;-60
2022/08/30 04:25:02;;;;;;;3.05;1.20;;;12.80;99.90;;;;;;4978577;28;20034;-59
2022/08/30 04:27:28;;;;;;;7.05;1.98;;;12.80;99.90;;;;;;4973728;28;20146;-59
2022/08/30 04:29:55;;;;;;;9.20;1.80;;;12.90;99.90;;;;;;4979112;28;20055;-59
2022/08/30 04:32:20;;;;;;;7.43;1.80;;;12.90;99.90;;;;;;4972618;28;20560;-58
2022/08/30 04:34:46;;;;;;;3.72;1.27;;;12.90;99.90;;;;;;4970688;28;20122;-58
2022/08/30 04:37:13;;;;;;;2.72;1.08;;;12.90;99.90;;;;;;4977388;28;20057;-59
2022/08/30 04:39:41;;;;;;;4.60;1.38;;;12.90;99.90;;;;;;4974930;28;20027;-59
2022/08/30 04:42:08;;;;;;;4.10;1.42;;;12.80;99.90;;;;;;4980483;28;20398;-61
2022/08/30 04:44:34;;;;;;;5.95;1.65;;;12.80;99.90;;;;;;4971071;28;20133;-61
2022/08/30 04:46:59;;;;;;;1.90;1.13;;;12.80;99.90;;;;;;4972353;28;21946;-60
2022/08/30 04:49:25;;;;;;;2.70;0.98;;;12.80;99.90;;;;;;4972451;28;20038;-60
2022/08/30 04:51:51;;;;;;;2.95;1.13;;;12.80;99.90;;;;;;4977524;28;20607;-59
2022/08/30 04:54:16;;;;;;;2.90;1.38;;;12.80;99.90;;;;;;4977354;28;20113;-59
2022/08/30 04:56:42;;;;;;;4.78;1.27;;;12.80;99.90;;;;;;4970136;28;20050;-62
2022/08/30 04:59:08;;;;;;;4.15;1.40;;;12.80;99.90;;;;;;4979634;28;20034;-58
2022/08/30 05:01:34;;;;;;;3.20;1.23;;;12.80;99.90;;;;;;4975912;28;20027;-59
2022/08/30 05:04:00;;;;;;;4.18;1.08;;;12.80;99.90;;;;;;4970822;28;20126;-61
2022/08/30 05:06:27;;;;;;;6.28;1.45;;;12.80;99.90;;;;;;4970977;28;20073;-60
2022/08/30 05:08:53;;;;;;;4.60;1.40;;;12.90;99.90;;;;;;4967896;28;20054;-61
2022/08/30 05:11:20;;;;;;;3.10;1.00;;;12.90;99.90;;;;;;4974018;28;20042;-61
2022/08/30 05:13:46;;;;;;;4.10;1.60;;;12.90;99.90;;;;;;4969078;28;20019;-62
2022/08/30 05:16:16;;;;;;;5.30;1.20;;;13.00;99.90;;;;;;4970700;28;20110;-60
2022/08/30 05:18:43;;;;;;;3.85;1.92;;;13.00;99.90;;;;;;4968697;28;20438;-61
2022/08/30 05:21:15;;;;;;;7.05;1.73;;;13.10;99.90;;;;;;4970572;28;20054;-59
2022/08/30 05:23:41;;;;;;;4.30;1.10;;;13.10;99.90;;;;;;4967293;28;20494;-61
2022/08/30 05:26:14;;;;;;;4.07;1.50;;;13.10;99.90;;;;;;4973771;28;20050;-61
2022/08/30 05:28:40;;;;;;;6.15;1.50;;;13.10;99.90;;;;;;4961442;28;20034;-60
2022/08/30 05:31:19;;;;;;;6.72;1.48;;;13.20;99.90;;;;;;4972125;28;20037;-60
2022/08/30 05:33:46;;;;;;;3.78;1.20;;;13.30;99.90;;;;;;4962460;28;20030;-61
2022/08/30 05:36:13;;;;;;;4.75;1.20;;;13.30;99.90;;;;;;4971855;28;20467;-61
2022/08/30 05:38:39;;;;;;;7.28;1.55;;;13.40;99.90;;;;;;4970886;28;20027;-60
2022/08/30 05:41:06;;;;;;;6.35;1.73;;;13.50;99.90;;;;;;4970749;28;20039;-64
2022/08/30 05:43:32;;;;;;;3.92;1.20;;;13.50;99.90;;;;;;4970352;28;20047;-61
2022/08/30 05:45:59;;;;;;;3.05;1.33;;;13.50;99.90;;;;;;4973226;28;20042;-61
2022/08/30 05:48:25;;;;;;;5.50;1.52;;;13.60;99.90;;;;;;4974735;28;20545;-60
2022/08/30 05:51:00;;;;;;;6.45;1.42;;;13.60;99.90;;;;;;4978418;28;20031;-58
2022/08/30 05:53:26;;;;;;;10.43;2.25;;;13.60;99.90;;;;;;4974912;28;20053;-59
2022/08/30 05:55:52;;;;;;;5.75;1.20;;;13.60;99.90;;;;;;4963096;28;20419;-59
2022/08/30 05:58:17;;;;;;;7.00;1.75;;;13.80;99.90;;;;;;4963153;28;20029;-59
2022/08/30 06:00:43;;;;;;;8.02;1.48;;;13.80;99.90;;;;;;4957663;28;20027;-59
2022/08/30 06:03:11;;;;;;;8.18;1.60;;;13.90;99.90;;;;;;4965408;28;20035;-59
2022/08/30 06:05:37;;;;;;;5.25;1.20;;;14.00;99.90;;;;;;4969685;28;20041;-59
2022/08/30 06:08:03;;;;;;;4.70;1.23;;;14.10;99.90;;;;;;4974395;28;20027;-61
2022/08/30 06:10:29;;;;;;;7.60;2.70;;;14.10;99.90;;;;;;4973869;28;20394;-60
2022/08/30 06:12:54;;;;;;;6.75;1.58;;;14.20;99.90;;;;;;4970641;28;20033;-59
2022/08/30 06:15:20;;;;;;;4.28;1.50;;;14.20;99.90;;;;;;4974720;28;20031;-60
2022/08/30 06:17:46;;;;;;;2.90;0.98;;;14.40;99.90;;;;;;4971831;28;20038;-62
2022/08/30 06:20:13;;;;;;;8.32;1.40;;;14.50;99.90;;;;;;4973745;28;20031;-60
2022/08/30 06:22:39;;;;;;;10.93;1.73;;;14.50;99.90;;;;;;4968327;28;20671;-59
2022/08/30 06:25:05;;;;;;;6.70;1.67;;;14.50;99.90;;;;;;4972368;28;20502;-60
2022/08/30 06:27:31;;;;;;;7.70;1.65;;;14.60;99.90;;;;;;4972368;28;20077;-59
2022/08/30 06:29:56;;;;;;;4.88;1.20;;;14.70;99.90;;;;;;4971922;28;20406;-59
2022/08/30 06:32:22;;;;;;;7.47;1.80;;;14.70;99.90;;;;;;4969236;28;20066;-62
2022/08/30 06:34:48;;;;;;;4.32;1.33;;;14.80;99.90;;;;;;4975190;28;20042;-59
2022/08/30 06:37:15;;;;;;;7.88;1.50;;;14.90;99.90;;;;;;4972982;28;20026;-59
2022/08/30 06:39:40;;;;;;;7.65;2.03;;;15.00;99.90;;;;;;4970918;28;20026;-60
2022/08/30 06:42:06;;;;;;;12.32;1.60;;;15.10;99.90;;;;;;4972957;28;20509;-61
2022/08/30 06:44:32;;;;;;;5.88;1.98;;;15.10;99.90;;;;;;4969580;28;20058;-61
2022/08/30 06:46:59;;;;;;;9.07;1.42;;;15.20;99.90;;;;;;4972754;28;20093;-61
2022/08/30 06:49:24;;;;;;;5.78;1.15;;;15.30;99.90;;;;;;4972592;28;20434;-60
2022/08/30 06:51:52;;;;;;;5.97;1.77;;;15.30;99.90;;;;;;4968680;28;20019;-60
2022/08/30 06:54:18;;;;;;;5.40;1.25;;;15.40;99.90;;;;;;4974643;28;20033;-60
2022/08/30 06:56:45;;;;;;;4.22;2.22;;;15.50;99.90;;;;;;4971663;28;20023;-61
2022/08/30 06:59:10;;;;;;;8.05;1.98;;;15.60;99.90;;;;;;4969984;28;20426;-60
2022/08/30 07:01:36;;;;;;;5.53;2.22;;;15.80;99.90;;;;;;4969779;28;20031;-60
2022/08/30 07:04:02;;;;;;;6.22;1.30;;;15.80;99.90;;;;;;4973361;28;20493;-61
2022/08/30 07:06:28;;;;;;;7.38;1.50;;;16.00;99.90;;;;;;4977889;28;20497;-60
2022/08/30 07:08:54;;;;;;;6.95;1.83;;;16.10;99.90;;;;;;4972727;28;20027;-59
2022/08/30 07:11:29;;;;;;;5.88;1.73;;;16.20;99.90;;;;;;4985766;28;20039;-61
2022/08/30 07:13:55;;;;;;;5.40;2.05;;;16.30;99.90;;;;;;4982532;28;20019;-59
2022/08/30 07:16:21;;;;;;;10.27;1.30;;;16.30;99.90;;;;;;4984109;28;20045;-60
2022/08/30 07:18:49;;;;;;;8.10;2.08;;;16.40;99.90;;;;;;4987545;28;20113;-60
2022/08/30 07:21:18;;;;;;;4.95;1.50;;;16.40;99.90;;;;;;4978098;28;20132;-59
2022/08/30 07:23:45;;;;;;;6.07;1.40;;;16.40;99.90;;;;;;4977881;28;20026;-61
2022/08/30 07:26:13;;;;;;;3.05;1.45;;;16.50;99.90;;;;;;4979123;28;20041;-60
2022/08/30 07:28:42;;;;;;;5.40;1.40;;;16.60;99.90;;;;;;4969399;28;20061;-64
2022/08/30 07:31:09;;;;;;;7.40;1.73;;;16.70;99.90;;;;;;4972387;28;20090;-60
2022/08/30 07:33:35;;;;;;;8.02;1.63;;;16.80;99.90;;;;;;4970780;28;20027;-60
2022/08/30 07:36:03;;;;;;;5.32;1.80;;;16.90;99.90;;;;;;4972067;28;20031;-61
2022/08/30 07:38:30;;;;;;;3.80;1.33;;;17.00;99.90;;;;;;4972440;28;20030;-59
2022/08/30 07:40:59;;;;;;;5.15;1.63;;;17.10;99.90;;;;;;4970733;28;20035;-61
2022/08/30 07:43:26;;;;;;;4.18;1.60;;;17.10;99.90;;;;;;4972211;28;20069;-61
2022/08/30 07:45:51;;;;;;;4.38;1.40;;;17.20;99.90;;;;;;4971031;28;20050;-60
2022/08/30 07:48:17;;;;;;;8.32;1.70;;;17.40;99.90;;;;;;4972644;28;20026;-59
2022/08/30 07:50:44;;;;;;;5.63;2.38;;;17.50;99.90;;;;;;4970738;28;20027;-60
2022/08/30 07:53:10;;;;;;;7.13;1.30;;;17.60;99.90;;;;;;4969256;28;20085;-60
2022/08/30 07:55:35;;;;;;;7.45;1.70;;;17.70;99.90;;;;;;4966345;28;20039;-61
2022/08/30 07:58:01;;;;;;;7.13;1.70;;;17.80;99.90;;;;;;4957056;28;20105;-60
2022/08/30 08:00:27;;;;;;;6.93;1.85;;;17.90;99.90;;;;;;4957269;28;20023;-60
2022/08/30 08:02:53;;;;;;;6.68;1.70;;;18.00;99.90;;;;;;4956885;28;20033;-60
2022/08/30 08:05:18;;;;;;;6.28;1.60;;;18.00;99.90;;;;;;4955965;28;20078;-61
2022/08/30 08:07:44;;;;;;;8.27;1.50;;;18.20;99.90;;;;;;4964240;28;20030;-61
2022/08/30 08:10:10;;;;;;;8.60;1.80;;;18.20;99.90;;;;;;4971662;28;20088;-60
2022/08/30 08:12:37;;;;;;;7.47;1.58;;;18.20;99.90;;;;;;4968994;28;20027;-64
2022/08/30 08:15:03;;;;;;;3.75;1.40;;;18.20;99.90;;;;;;4967377;28;20031;-60
2022/08/30 08:17:29;;;;;;;4.50;1.35;;;18.40;99.90;;;;;;4975385;28;20034;-60
2022/08/30 08:19:55;;;;;;;5.07;1.50;;;18.60;99.90;;;;;;4973342;28;20026;-60
2022/08/30 08:22:20;;;;;;;4.65;1.38;;;18.70;99.90;;;;;;4973855;28;20038;-60
2022/08/30 08:24:46;;;;;;;10.90;1.83;;;18.90;99.90;;;;;;4973234;28;20089;-60
2022/08/30 08:27:15;;;;;;;4.28;1.10;;;19.10;99.90;;;;;;4972078;28;20035;-61
2022/08/30 08:29:41;;;;;;;5.63;1.58;;;19.30;99.90;;;;;;4969767;28;20027;-59
2022/08/30 08:32:06;;;;;;;6.78;1.17;;;19.30;99.90;;;;;;4971460;28;20068;-60
2022/08/30 08:34:34;;;;;;;2.72;0.93;;;19.50;99.90;;;;;;4971937;28;20042;-59
2022/08/30 08:36:59;;;;;;;7.38;1.23;;;19.60;99.90;;;;;;4971384;28;20035;-61
2022/08/30 08:39:25;;;;;;;6.75;1.60;;;19.60;99.90;;;;;;4971075;28;20122;-59
2022/08/30 08:42:05;;;;;;;4.80;1.50;;;19.70;99.90;;;;;;4968755;28;20050;-60
2022/08/30 08:44:44;;;;;;;5.25;1.48;;;19.90;99.90;;;;;;4968871;28;20046;-60
2022/08/30 08:47:32;;;;;;;4.95;1.60;;;20.20;99.90;;;;;;4960079;28;20126;-61
2022/08/30 08:50:02;;;;;;;9.73;1.88;;;20.40;99.90;;;;;;4953436;28;20027;-60
2022/08/30 08:55:29;;;;;;;4.03;1.60;;;20.50;99.90;;;;;;4957873;28;20034;-59
2022/08/30 08:57:57;;;;;;;4.35;1.30;;;20.70;99.90;;;;;;4959578;28;20023;-60
2022/08/30 09:00:23;;;;;;;5.45;1.45;;;20.90;99.90;;;;;;4956847;28;20035;-60
2022/08/30 09:03:00;;;;;;;6.40;1.52;;;20.90;99.90;;;;;;4951711;28;20490;-60
2022/08/30 09:05:33;;;;;;;3.97;1.10;;;20.90;99.90;;;;;;4954794;28;20061;-61
2022/08/30 09:08:03;;;;;;;6.35;1.25;;;20.80;99.90;;;;;;4957915;28;20110;-60
2022/08/30 09:10:31;;;;;;;7.15;2.85;;;20.90;99.90;;;;;;4954299;28;20082;-61
2022/08/30 09:12:57;;;;;;;5.68;1.20;;;20.90;99.90;;;;;;4952983;28;20030;-60
2022/08/30 09:15:27;;;;;;;8.18;1.90;;;20.80;99.90;;;;;;4953848;28;20037;-60
2022/08/30 09:18:02;;;;;;;6.90;1.20;;;21.00;99.90;;;;;;4951991;28;20077;-60
2022/08/30 09:20:48;;;;;;;5.43;1.15;;;21.10;99.90;;;;;;4955660;28;20034;-61
2022/08/30 09:23:14;;;;;;;6.68;1.60;;;21.20;99.90;;;;;;4958996;28;20085;-61
2022/08/30 09:26:04;;;;;;;7.05;1.13;;;21.30;99.90;;;;;;4956418;28;20035;-61
2022/08/30 09:28:50;;;;;;;5.13;1.30;;;21.40;99.90;;;;;;4957020;28;20118;-60
2022/08/30 09:31:25;;;;;;;3.60;1.63;;;21.50;99.90;;;;;;4952860;28;20102;-60
2022/08/30 09:34:08;;;;;;;6.65;1.05;;;21.60;99.90;;;;;;4951416;28;20023;-60
2022/08/30 09:36:48;;;;;;;7.93;1.55;;;21.70;99.90;;;;;;4951058;28;20031;-60
2022/08/30 09:39:14;;;;;;;6.22;1.33;;;21.70;99.90;;;;;;4955316;28;20015;-61
2022/08/30 09:41:43;;;;;;;3.75;1.35;;;21.80;99.90;;;;;;4966185;28;20030;-59
2022/08/30 09:44:16;;;;;;;8.00;1.30;;;21.70;99.90;;;;;;4969039;28;20111;-60
2022/08/30 09:46:51;;;;;;;10.15;1.60;;;21.50;99.90;;;;;;4951968;28;20023;-60
2022/08/30 09:49:42;;;;;;;9.65;1.73;;;21.30;99.90;;;;;;4958789;28;20080;-59
2022/08/30 09:52:36;;;;;;;9.70;2.85;;;21.10;99.90;;;;;;4953038;28;20398;-61
2022/08/30 09:55:31;;;;;;;8.30;1.52;;;21.10;99.90;;;;;;4954036;28;20031;-60
2022/08/30 09:58:20;;;;;;;14.00;1.65;;;21.20;99.90;;;;;;4959142;28;20032;-60
2022/08/30 10:00:55;;;;;;;7.68;1.83;;;21.60;99.90;;;;;;4959349;28;20085;-61
2022/08/30 10:03:34;;;;;;;9.95;2.15;;;21.70;99.90;;;;;;4966549;28;20034;-61
2022/08/30 10:06:29;;;;;;;5.45;1.60;;;21.80;99.90;;;;;;4962690;28;20039;-59
2022/08/30 10:09:13;;;;;;;6.88;1.75;;;22.20;99.90;;;;;;4971653;28;20379;-60
2022/08/30 10:12:00;;;;;;;5.97;1.55;;;22.30;99.90;;;;;;4966866;28;20042;-60
2022/08/30 10:14:59;;;;;;;9.52;1.95;;;22.10;99.90;;;;;;4968600;28;20066;-59
2022/08/30 10:17:42;;;;;;;8.10;1.70;;;22.20;99.90;;;;;;4962672;28;20037;-61
2022/08/30 10:20:26;;;;;;;6.18;1.70;;;22.20;99.90;;;;;;4967947;28;20031;-60
2022/08/30 10:23:05;;;;;;;6.68;1.67;;;22.20;99.90;;;;;;4956761;28;20093;-60
2022/08/30 10:25:47;;;;;;;6.07;1.40;;;22.30;99.90;;;;;;4960266;28;20035;-60
2022/08/30 10:28:15;;;;;;;;;;;22.40;99.90;;;;;;4958121;28;20066;-60
2022/08/30 10:30:51;;;;;;;5.85;1.60;;;22.50;99.90;;;;;;4964338;28;20354;-60
2022/08/30 10:33:23;;;;;;;7.13;2.05;;;22.50;99.90;;;;;;4967488;28;20045;-61
2022/08/30 10:35:56;;;;;;;6.72;1.92;;;22.50;99.90;;;;;;4957122;28;20125;-61
2022/08/30 10:38:29;;;;;;;11.30;2.15;;;22.90;99.90;;;;;;4969786;28;20035;-59
2022/08/30 10:41:16;;;;;;;6.65;1.58;;;23.20;99.90;;;;;;4965415;28;20387;-60
2022/08/30 10:43:49;;;;;;;14.27;1.67;;;23.30;99.90;;;;;;4961180;28;20043;-60
2022/08/30 10:46:24;;;;;;;20.52;2.67;;;23.60;99.90;;;;;;4966376;28;20042;-62
2022/08/30 10:48:51;;;;;;;5.57;1.80;;;23.80;99.90;;;;;;4954805;28;20031;-61
2022/08/30 10:51:30;;;;;;;4.38;1.30;;;23.90;99.90;;;;;;4959361;28;20038;-60
2022/08/30 10:54:39;;;;;;;4.25;1.05;;;23.90;99.90;;;;;;4961027;28;20023;-60
2022/08/30 10:57:05;;;;;;;7.60;1.65;;;23.90;99.90;;;;;;4966813;28;20105;-60
2022/08/30 10:59:32;;;;;;;7.63;1.42;;;24.00;99.90;;;;;;4968810;28;20575;-61
2022/08/30 11:02:07;;;;;;;7.25;1.52;;;24.20;99.90;;;;;;4964703;28;20443;-60
2022/08/30 11:04:42;;;;;;;5.88;1.70;;;24.40;99.90;;;;;;4963817;28;20166;-61
2022/08/30 11:07:30;;;;;;;5.07;1.55;;;24.50;99.90;;;;;;4969014;28;20042;-59
2022/08/30 11:10:31;;;;;;;10.80;1.60;;;25.00;99.90;;;;;;4963763;28;20033;-61
2022/08/30 11:13:21;;;;;;;3.72;1.15;;;25.00;99.90;;;;;;4969733;28;20039;-61
2022/08/30 11:16:03;;;;;;;7.75;1.40;;;25.40;99.90;;;;;;4971599;28;20433;-60
2022/08/30 11:18:49;;;;;;;;;;;25.40;99.90;;;;;;4973930;28;20430;-60
2022/08/30 11:21:21;;;;;;;5.10;1.63;;;26.00;99.90;;;;;;4972178;28;19910;-60
2022/08/30 11:24:04;;;;;;;10.50;1.60;;;26.30;99.90;;;;;;4971512;28;20050;-60
2022/08/30 11:26:48;;;;;;;5.60;1.75;;;26.60;99.90;;;;;;4969963;28;20074;-60
2022/08/30 11:29:27;;;;;;;6.32;1.30;;;27.20;99.90;;;;;;4973237;28;20471;-60
2022/08/30 11:31:55;;;;;;;3.72;1.50;;;27.40;99.90;;;;;;4970960;28;20475;-61
2022/08/30 11:34:45;;;;;;;3.20;1.27;;;28.10;99.90;;;;;;4973000;28;20022;-60
2022/08/30 11:37:37;;;;;;;4.93;1.20;;;28.20;99.90;;;;;;4966714;28;20394;-60
2022/08/30 11:40:09;;;;;;;4.50;1.50;;;27.60;99.90;;;;;;4969198;28;20102;-61
2022/08/30 11:42:43;;;;;;;8.57;1.67;;;27.30;99.90;;;;;;4966297;28;20049;-61
2022/08/30 11:45:21;;;;;;;4.97;1.55;;;27.30;99.90;;;;;;4972843;28;20054;-60
2022/08/30 11:48:04;;;;;;;5.20;1.45;;;27.30;99.90;;;;;;4971514;28;20487;-61
2022/08/30 11:50:47;;;;;;;6.28;1.65;;;27.20;99.90;;;;;;4973134;28;20022;-61
2022/08/30 11:53:50;;;;;;;6.35;1.98;;;28.30;99.90;;;;;;4971671;28;20117;-61
2022/08/30 11:56:25;;;;;;;4.28;1.42;;;29.00;98.00;;;;;;4969403;28;20026;-62
2022/08/30 11:58:58;;;;;;;4.75;1.35;;;29.40;97.00;;;;;;4971058;28;20026;-61
2022/08/30 12:01:26;;;;;;;3.97;1.38;;;29.60;95.00;;;;;;4967358;28;20432;-61
2022/08/30 12:04:16;;;;;;;4.68;1.27;;;29.30;96.20;;;;;;4970087;28;20085;-61
2022/08/30 12:06:57;;;;;;;7.68;1.60;;;29.70;94.70;;;;;;4960920;28;20035;-61
2022/08/30 12:09:23;;;;;;;3.47;1.40;;;29.30;95.00;;;;;;4972453;28;20042;-61
2022/08/30 12:11:57;;;;;;;3.40;1.27;;;28.50;95.50;;;;;;4969606;28;20027;-61
2022/08/30 12:14:46;;;;;;;3.30;1.42;;;27.90;96.30;;;;;;4967000;28;20122;-61
2022/08/30 12:20:39;;;;;;;4.50;1.17;;;28.20;96.20;;;;;;4972136;28;20514;-61
2022/08/30 12:23:20;;;;;;;4.10;1.50;;;28.80;95.50;;;;;;4972197;28;20554;-61
2022/08/30 12:25:46;;;;;;;5.40;2.85;;;29.00;93.90;;;;;;4968881;28;20058;-61
2022/08/30 12:28:22;;;;;;;6.13;2.25;;;28.80;93.60;;;;;;4971584;28;20087;-61
2022/08/30 12:30:49;;;;;;;2.83;1.40;;;28.10;94.80;;;;;;4970290;28;20081;-61
2022/08/30 12:33:25;;;;;;;5.03;1.60;;;27.50;95.50;;;;;;4972033;28;20050;-61
2022/08/30 12:35:52;;;;;;;4.50;1.10;;;27.40;96.60;;;;;;4970393;28;20084;-60
2022/08/30 12:38:20;;;;;;;2.55;1.55;;;27.60;95.20;;;;;;4971645;28;20150;-61
2022/08/30 12:40:54;;;;;;;7.05;1.60;;;28.40;94.70;;;;;;4965329;28;20046;-61
2022/08/30 12:43:47;;;;;;;4.88;2.22;;;29.10;92.10;;;;;;4970691;28;20092;-61
2022/08/30 12:46:17;;;;;;;3.05;1.02;;;29.10;90.80;;;;;;4970684;28;20552;-60
2022/08/30 12:48:43;;;;;;;3.33;1.40;;;28.00;91.60;;;;;;4966053;28;20118;-60
2022/08/30 12:51:44;;;;;;;5.72;1.92;;;27.40;92.30;;;;;;4972813;28;20019;-60
2022/08/30 12:54:26;;;;;;;5.47;1.70;;;26.60;93.50;;;;;;4966833;28;20031;-60
2022/08/30 12:57:03;;;;;;;7.93;1.27;;;26.40;94.60;;;;;;4979396;28;20030;-61
2022/08/30 12:59:50;;;;;;;3.85;2.08;;;26.20;94.50;;;;;;4977522;28;20053;-61
2022/08/30 13:02:25;;;;;;;4.32;1.52;;;26.00;94.60;;;;;;4978005;28;20542;-60
2022/08/30 13:04:52;;;;;;;4.57;1.42;;;25.80;94.70;;;;;;4970620;28;20102;-60
2022/08/30 13:07:30;;;;;;;4.38;1.50;;;25.80;94.60;;;;;;4980009;28;20163;-60
2022/08/30 13:10:04;;;;;;;3.47;1.42;;;25.80;94.90;;;;;;4968184;28;20059;-61
2022/08/30 13:12:30;;;;;;;5.53;1.67;;;25.90;95.70;;;;;;4976332;28;20034;-61